Time;durP1;ratioP1;P1;durP2;ratioP2;P2;SDS_P1;SDS_P2;PMS_P1;PMS_P2;Temp;Humidity;BMP_temperature;BMP_pressure;BME280_temperature;BME280_humidity;BME280_pressure;Samples;Min_cycle;Max_cycle;Signal;HPM_P1;HPM_P2
2021/06/24 00:02:34;;;;;;;14.93;13.33;;;21.80;99.90;;;;;;6319374;28;20311;-72
2021/06/24 00:05:36;;;;;;;15.40;13.83;;;21.70;99.90;;;;;;6318856;28;20182;-72
2021/06/24 00:08:39;;;;;;;15.40;13.70;;;21.60;99.90;;;;;;6318157;28;20252;-72
2021/06/24 00:11:41;;;;;;;17.17;15.07;;;21.60;99.90;;;;;;6317479;28;20218;-72
2021/06/24 00:14:44;;;;;;;16.63;14.23;;;21.50;99.90;;;;;;6317938;28;20224;-72
2021/06/24 00:17:46;;;;;;;14.73;13.17;;;21.50;99.90;;;;;;6301252;28;20194;-72
2021/06/24 00:20:49;;;;;;;16.07;13.57;;;21.40;99.90;;;;;;6318042;28;20653;-72
2021/06/24 00:23:51;;;;;;;15.40;13.90;;;21.40;99.90;;;;;;6323948;28;20206;-71
2021/06/24 00:26:53;;;;;;;14.43;12.90;;;21.30;99.90;;;;;;6322039;28;20193;-71
2021/06/24 00:29:55;;;;;;;16.53;14.93;;;21.20;99.90;;;;;;6322388;28;20724;-71
2021/06/24 00:32:58;;;;;;;16.97;15.17;;;21.10;99.90;;;;;;6323556;28;20198;-71
2021/06/24 00:36:00;;;;;;;16.63;13.30;;;21.10;99.90;;;;;;6321741;28;20673;-71
2021/06/24 00:39:03;;;;;;;15.27;13.70;;;21.10;99.90;;;;;;6323475;28;20654;-71
2021/06/24 00:42:07;;;;;;;17.50;14.93;;;21.00;99.90;;;;;;6321749;28;20262;-71
2021/06/24 00:45:12;;;;;;;19.07;15.87;;;20.90;99.90;;;;;;6322075;28;20190;-71
2021/06/24 00:48:14;;;;;;;16.53;14.83;;;20.80;99.90;;;;;;6321848;28;20282;-71
2021/06/24 00:51:17;;;;;;;18.27;14.77;;;20.80;99.90;;;;;;6304865;28;20194;-71
2021/06/24 00:54:20;;;;;;;19.87;14.80;;;20.80;99.90;;;;;;6321797;28;20208;-71
2021/06/24 00:57:23;;;;;;;17.73;14.80;;;20.70;99.90;;;;;;6304357;28;20209;-71
2021/06/24 01:00:26;;;;;;;16.97;15.20;;;20.70;99.90;;;;;;6322776;28;20186;-71
2021/06/24 01:03:29;;;;;;;16.67;14.63;;;20.60;99.90;;;;;;6322345;28;20206;-71
2021/06/24 01:06:31;;;;;;;16.90;15.10;;;20.50;99.90;;;;;;6322594;28;20210;-71
2021/06/24 01:09:34;;;;;;;17.40;15.23;;;20.40;99.90;;;;;;6322779;28;20197;-71
2021/06/24 01:12:37;;;;;;;17.97;14.97;;;20.40;99.90;;;;;;6321840;28;20598;-71
2021/06/24 01:15:40;;;;;;;18.57;15.47;;;20.30;99.90;;;;;;6321120;28;20730;-71
2021/06/24 01:18:43;;;;;;;18.40;16.47;;;20.30;99.90;;;;;;6321867;28;20186;-71
2021/06/24 01:21:48;;;;;;;18.70;16.40;;;20.20;99.90;;;;;;6321322;28;20215;-71
2021/06/24 01:24:50;;;;;;;19.63;16.20;;;20.30;99.90;;;;;;6321033;28;20282;-71
2021/06/24 01:28:01;;;;;;;17.50;15.70;;;20.30;99.90;;;;;;6320094;28;20216;-72
2021/06/24 01:31:04;;;;;;;16.20;14.53;;;20.30;99.90;;;;;;6304251;28;20197;-72
2021/06/24 01:34:11;;;;;;;17.57;15.60;;;20.30;99.90;;;;;;6320360;28;20188;-72
2021/06/24 01:37:14;;;;;;;15.93;14.33;;;20.40;99.90;;;;;;6320653;28;20252;-72
2021/06/24 01:40:16;;;;;;;15.83;14.20;;;20.40;99.90;;;;;;6320529;28;20208;-72
2021/06/24 01:43:19;;;;;;;15.87;14.27;;;20.40;99.90;;;;;;6320286;28;20299;-72
2021/06/24 01:46:22;;;;;;;17.50;15.67;;;20.40;99.90;;;;;;6321739;28;20178;-72
2021/06/24 01:49:28;;;;;;;17.87;15.23;;;20.50;99.90;;;;;;6320001;28;20186;-72
2021/06/24 01:52:31;;;;;;;16.67;14.27;;;20.50;99.90;;;;;;6320582;28;20587;-72
2021/06/24 01:55:35;;;;;;;16.20;14.53;;;20.40;99.90;;;;;;6319682;28;20205;-72
2021/06/24 01:58:42;;;;;;;17.70;15.20;;;20.40;99.90;;;;;;6321353;28;20277;-72
2021/06/24 02:01:53;;;;;;;16.93;15.17;;;20.30;99.90;;;;;;6320323;28;20237;-72
2021/06/24 02:05:20;;;;;;;15.00;13.47;;;20.30;99.90;;;;;;6319463;28;20186;-72
2021/06/24 02:08:25;;;;;;;18.07;13.43;;;20.30;99.90;;;;;;6303199;28;20194;-72
2021/06/24 02:11:42;;;;;;;14.53;12.70;;;20.30;99.90;;;;;;6320443;28;20175;-72
2021/06/24 02:14:45;;;;;;;17.77;14.23;;;20.30;99.90;;;;;;6321077;28;20185;-72
2021/06/24 02:17:47;;;;;;;15.73;13.43;;;20.20;99.90;;;;;;6320441;28;20194;-72
2021/06/24 02:20:52;;;;;;;13.67;12.37;;;20.20;99.90;;;;;;6303374;28;20198;-72
2021/06/24 02:24:13;;;;;;;14.50;13.00;;;20.10;99.90;;;;;;6305620;28;20248;-72
2021/06/24 02:27:36;;;;;;;15.63;14.13;;;20.00;99.90;;;;;;6318978;28;20251;-72
2021/06/24 02:30:58;;;;;;;15.63;14.03;;;20.00;99.90;;;;;;6320764;28;20281;-72
2021/06/24 02:34:01;;;;;;;15.87;14.10;;;19.90;99.90;;;;;;6319012;28;20197;-72
2021/06/24 02:37:32;;;;;;;15.70;14.00;;;19.80;99.90;;;;;;6312623;28;20286;-72
2021/06/24 02:40:53;;;;;;;16.23;14.63;;;19.80;99.90;;;;;;6321093;28;20258;-72
2021/06/24 02:43:56;;;;;;;16.70;14.67;;;19.70;99.90;;;;;;6318859;28;20202;-72
2021/06/24 02:46:58;;;;;;;15.30;13.70;;;19.70;99.90;;;;;;6320213;28;20182;-72
2021/06/24 02:50:03;;;;;;;18.17;14.30;;;19.70;99.90;;;;;;6319363;28;20197;-72
2021/06/24 02:53:06;;;;;;;18.67;14.43;;;19.60;99.90;;;;;;6302410;28;20343;-72
2021/06/24 02:56:09;;;;;;;17.43;14.63;;;19.60;99.90;;;;;;6301823;28;20194;-72
2021/06/24 02:59:18;;;;;;;16.60;14.87;;;19.60;99.90;;;;;;6318936;28;20219;-71
2021/06/24 03:02:21;;;;;;;15.50;14.10;;;19.50;99.90;;;;;;6318384;28;20288;-71
2021/06/24 03:05:23;;;;;;;18.63;14.97;;;19.60;99.90;;;;;;6319024;28;20675;-71
2021/06/24 03:08:26;;;;;;;15.23;13.43;;;19.60;99.90;;;;;;6318617;28;20198;-71
2021/06/24 03:11:36;;;;;;;16.17;14.50;;;19.60;99.90;;;;;;6319472;28;20174;-71
2021/06/24 03:14:41;;;;;;;14.90;13.37;;;19.60;99.90;;;;;;6320378;28;20272;-71
2021/06/24 03:17:44;;;;;;;17.27;15.13;;;19.50;99.90;;;;;;6317957;28;20721;-71
2021/06/24 03:20:46;;;;;;;15.50;13.97;;;19.60;99.90;;;;;;6302025;28;20201;-71
2021/06/24 03:23:49;;;;;;;16.87;14.63;;;19.60;99.90;;;;;;6318140;28;20213;-71
2021/06/24 03:26:52;;;;;;;16.53;14.57;;;19.70;99.90;;;;;;6317589;28;20608;-71
2021/06/24 03:29:55;;;;;;;18.27;14.07;;;19.70;99.90;;;;;;6318222;28;20193;-71
2021/06/24 03:32:57;;;;;;;20.30;16.47;;;19.70;99.90;;;;;;6319094;28;20657;-71
2021/06/24 03:35:59;;;;;;;18.17;16.17;;;19.80;99.90;;;;;;6319539;28;20212;-71
2021/06/24 03:39:02;;;;;;;20.93;18.10;;;20.00;99.90;;;;;;6317500;28;20294;-71
2021/06/24 03:42:10;;;;;;;24.13;19.20;;;20.10;99.90;;;;;;6318153;28;20193;-71
2021/06/24 03:45:14;;;;;;;20.43;18.33;;;20.20;99.90;;;;;;6319482;28;20217;-71
2021/06/24 03:48:17;;;;;;;28.90;20.47;;;20.30;99.90;;;;;;6318860;28;20174;-71
2021/06/24 03:51:21;;;;;;;26.00;21.37;;;20.40;99.90;;;;;;6317819;28;20190;-71
2021/06/24 03:54:31;;;;;;;23.07;20.67;;;20.50;99.90;;;;;;6318877;28;20178;-71
2021/06/24 03:57:34;;;;;;;26.10;21.93;;;20.60;99.90;;;;;;6304283;28;20262;-72
2021/06/24 04:00:50;;;;;;;29.73;23.97;;;20.60;99.90;;;;;;6322899;28;20320;-72
2021/06/24 04:03:52;;;;;;;32.43;25.10;;;20.60;99.90;;;;;;6322335;28;20228;-72
2021/06/24 04:07:09;;;;;;;32.13;25.23;;;20.70;99.90;;;;;;6323756;28;20186;-72
2021/06/24 04:10:12;;;;;;;29.03;23.03;;;20.80;99.90;;;;;;6322495;28;20568;-72
2021/06/24 04:13:15;;;;;;;32.47;24.60;;;20.80;99.90;;;;;;6322887;28;20601;-72
2021/06/24 04:16:18;;;;;;;31.30;25.50;;;20.90;99.90;;;;;;6296775;28;20293;-71
2021/06/24 04:19:20;;;;;;;36.73;27.20;;;20.90;99.90;;;;;;6307289;28;20186;-71
2021/06/24 04:22:26;;;;;;;36.33;26.60;;;21.00;99.90;;;;;;6306112;28;20569;-71
2021/06/24 04:25:51;;;;;;;32.80;25.27;;;21.00;99.90;;;;;;6323014;28;20230;-72
2021/06/24 04:28:54;;;;;;;37.67;27.93;;;21.00;99.90;;;;;;6322098;28;20363;-72
2021/06/24 04:31:58;;;;;;;32.57;26.27;;;21.00;99.90;;;;;;6321574;28;20270;-72
2021/06/24 04:35:01;;;;;;;31.67;25.30;;;21.10;99.90;;;;;;6305260;28;20197;-71
2021/06/24 04:38:04;;;;;;;30.53;23.73;;;21.10;99.90;;;;;;6321472;28;20210;-71
2021/06/24 04:41:07;;;;;;;27.13;22.20;;;21.10;99.90;;;;;;6305152;28;20194;-71
2021/06/24 04:44:29;;;;;;;24.70;20.07;;;21.20;99.90;;;;;;6322982;28;20199;-71
2021/06/24 04:47:32;;;;;;;28.10;21.50;;;21.20;99.90;;;;;;6320961;28;20200;-71
2021/06/24 04:50:36;;;;;;;24.83;20.80;;;21.30;99.90;;;;;;6321668;28;20198;-71
2021/06/24 04:53:38;;;;;;;28.27;22.03;;;21.30;99.90;;;;;;6322438;28;20217;-71
2021/06/24 04:56:47;;;;;;;25.93;21.90;;;21.30;99.90;;;;;;6321577;28;20182;-71
2021/06/24 04:59:52;;;;;;;22.07;19.23;;;21.30;99.90;;;;;;6296842;28;20210;-71
2021/06/24 05:03:27;;;;;;;32.77;24.20;;;21.40;99.90;;;;;;6274271;28;20222;-72
2021/06/24 05:06:34;;;;;;;37.23;25.80;;;21.50;99.90;;;;;;6295628;28;20638;-71
2021/06/24 05:09:40;;;;;;;43.00;29.07;;;21.50;99.90;;;;;;6295425;28;20554;-71
2021/06/24 05:12:43;;;;;;;42.20;30.00;;;21.60;99.90;;;;;;6295754;28;20223;-71
2021/06/24 05:15:45;;;;;;;45.37;31.07;;;21.60;99.90;;;;;;6310003;28;20199;-71
2021/06/24 05:18:48;;;;;;;38.90;28.87;;;21.60;99.90;;;;;;6317156;28;20194;-71
2021/06/24 05:21:50;;;;;;;33.37;27.17;;;21.60;99.90;;;;;;6319622;28;20542;-71
2021/06/24 05:24:53;;;;;;;33.40;25.10;;;21.60;99.90;;;;;;6304927;28;20210;-71
2021/06/24 05:27:55;;;;;;;32.67;25.17;;;21.70;99.90;;;;;;6308336;28;20197;-71
2021/06/24 05:30:57;;;;;;;35.90;25.83;;;21.80;99.90;;;;;;6295855;28;20194;-71
2021/06/24 05:34:00;;;;;;;31.90;23.87;;;21.80;99.90;;;;;;6312710;28;20277;-71
2021/06/24 05:37:03;;;;;;;31.83;20.73;;;21.90;99.90;;;;;;6302587;28;20221;-71
2021/06/24 05:40:07;;;;;;;26.80;21.23;;;21.90;99.90;;;;;;6319236;28;20561;-71
2021/06/24 05:43:11;;;;;;;25.90;20.37;;;21.90;99.90;;;;;;6298426;28;20213;-71
2021/06/24 05:46:13;;;;;;;25.37;18.73;;;22.00;99.90;;;;;;6309962;28;20194;-72
2021/06/24 05:49:15;;;;;;;22.13;17.43;;;22.00;99.90;;;;;;6305726;28;20205;-72
2021/06/24 05:52:17;;;;;;;21.90;18.20;;;22.00;99.90;;;;;;6319811;28;20228;-72
2021/06/24 05:55:47;;;;;;;20.20;15.80;;;22.10;99.90;;;;;;6316919;28;20194;-72
2021/06/24 05:58:44;;;;;;;18.40;15.47;;;22.10;99.90;;;;;;6319595;28;20297;-72
2021/06/24 06:01:50;;;;;;;20.37;14.90;;;22.10;99.90;;;;;;6318535;28;20768;-72
2021/06/24 06:04:52;;;;;;;14.73;12.87;;;22.10;99.90;;;;;;6309208;28;20598;-72
2021/06/24 06:07:54;;;;;;;15.10;12.90;;;22.20;99.90;;;;;;6313776;28;20202;-72
2021/06/24 06:10:57;;;;;;;16.13;12.53;;;22.30;99.90;;;;;;6314718;28;20190;-72
2021/06/24 06:14:01;;;;;;;14.87;11.27;;;22.30;99.90;;;;;;6315240;28;20952;-72
2021/06/24 06:17:03;;;;;;;12.57;10.10;;;22.40;99.90;;;;;;6302329;28;20221;-72
2021/06/24 06:20:06;;;;;;;11.07;9.27;;;22.40;99.90;;;;;;6318683;28;20198;-72
2021/06/24 06:23:08;;;;;;;11.00;9.23;;;22.50;99.90;;;;;;6304544;28;20201;-72
2021/06/24 06:26:10;;;;;;;12.13;7.90;;;22.60;99.90;;;;;;6310279;28;20262;-72
2021/06/24 06:29:13;;;;;;;8.83;6.77;;;22.70;99.90;;;;;;6318207;28;20684;-72
2021/06/24 06:32:16;;;;;;;7.67;6.87;;;22.80;99.90;;;;;;6319239;28;20198;-72
2021/06/24 06:35:19;;;;;;;8.43;6.90;;;22.90;99.90;;;;;;6319388;28;20182;-72
2021/06/24 06:38:22;;;;;;;9.67;5.93;;;23.20;99.90;;;;;;6302611;28;20221;-72
2021/06/24 06:41:25;;;;;;;7.07;5.77;;;23.40;99.90;;;;;;6294082;28;20194;-72
2021/06/24 06:44:27;;;;;;;6.30;5.20;;;23.50;99.90;;;;;;6309675;28;20206;-72
2021/06/24 06:47:29;;;;;;;6.47;5.57;;;23.60;99.90;;;;;;6304341;28;20637;-72
2021/06/24 06:50:31;;;;;;;5.63;4.50;;;23.80;99.90;;;;;;6313182;28;20265;-72
2021/06/24 06:53:34;;;;;;;5.20;4.70;;;24.00;99.90;;;;;;6302139;28;20553;-72
2021/06/24 06:56:37;;;;;;;6.47;5.17;;;24.10;99.90;;;;;;6314548;28;20198;-72
2021/06/24 06:59:40;;;;;;;7.23;4.73;;;24.40;99.90;;;;;;6317576;28;20289;-72
2021/06/24 07:02:42;;;;;;;11.93;5.53;;;24.50;99.90;;;;;;6319041;28;20250;-72
2021/06/24 07:05:45;;;;;;;6.53;4.47;;;24.60;99.90;;;;;;6318924;28;20263;-72
2021/06/24 07:08:47;;;;;;;10.23;4.70;;;24.70;99.90;;;;;;6308912;28;20563;-72
2021/06/24 07:11:49;;;;;;;6.77;4.63;;;24.80;99.90;;;;;;6310844;28;20182;-72
2021/06/24 07:14:51;;;;;;;6.03;4.77;;;24.90;99.90;;;;;;6310302;28;20198;-72
2021/06/24 07:17:54;;;;;;;5.37;4.80;;;25.10;99.90;;;;;;6307229;28;20542;-72
2021/06/24 07:20:56;;;;;;;4.90;4.40;;;25.30;99.90;;;;;;6307093;28;20251;-72
2021/06/24 07:23:58;;;;;;;5.88;5.03;;;25.70;99.90;;;;;;6294428;28;20206;-72
2021/06/24 07:27:01;;;;;;;5.67;5.17;;;26.00;99.90;;;;;;6299188;28;20182;-72
2021/06/24 07:30:05;;;;;;;6.80;5.00;;;26.30;99.90;;;;;;6306025;28;20305;-72
2021/06/24 07:33:07;;;;;;;6.20;4.72;;;26.60;99.50;;;;;;6305699;28;20204;-72
2021/06/24 07:36:10;;;;;;;5.03;4.45;;;26.80;98.60;;;;;;6315856;28;20271;-72
2021/06/24 07:39:12;;;;;;;6.90;4.53;;;26.90;97.90;;;;;;6321184;28;20200;-72
2021/06/24 07:42:16;;;;;;;4.43;4.03;;;27.20;98.00;;;;;;6310376;28;20224;-72
2021/06/24 07:45:18;;;;;;;6.55;4.20;;;27.50;97.30;;;;;;6323750;28;20213;-72
2021/06/24 07:48:20;;;;;;;7.20;4.63;;;27.90;96.90;;;;;;6323074;28;20261;-72
2021/06/24 07:51:23;;;;;;;5.10;4.60;;;28.20;96.10;;;;;;6323654;28;20270;-72
2021/06/24 07:54:25;;;;;;;5.35;4.75;;;28.40;95.60;;;;;;6316539;28;20191;-72
2021/06/24 07:57:29;;;;;;;5.03;4.50;;;28.70;94.60;;;;;;6307724;28;20281;-72
2021/06/24 08:00:32;;;;;;;5.13;4.15;;;29.00;93.50;;;;;;6320688;28;20281;-72
2021/06/24 08:03:35;;;;;;;4.80;4.15;;;29.20;92.80;;;;;;6290940;28;20190;-72
2021/06/24 08:06:39;;;;;;;5.30;3.75;;;29.30;91.00;;;;;;6314562;28;20193;-72
2021/06/24 08:09:43;;;;;;;4.65;3.90;;;29.30;91.30;;;;;;6303226;28;20191;-72
2021/06/24 08:12:47;;;;;;;4.40;4.00;;;29.40;91.30;;;;;;6312759;28;20241;-72
2021/06/24 08:15:51;;;;;;;6.25;3.85;;;29.60;90.50;;;;;;6323574;28;20205;-72
2021/06/24 08:18:53;;;;;;;3.55;3.25;;;29.90;90.70;;;;;;6323634;28;20178;-72
2021/06/24 08:21:58;;;;;;;4.53;4.05;;;30.20;89.90;;;;;;6312288;28;20376;-72
2021/06/24 08:25:01;;;;;;;4.40;4.00;;;30.30;88.50;;;;;;6316256;28;20210;-72
2021/06/24 08:28:05;;;;;;;4.45;3.85;;;30.30;84.70;;;;;;6321271;28;20198;-72
2021/06/24 08:31:08;;;;;;;4.43;4.03;;;30.10;86.00;;;;;;6316055;28;20190;-72
2021/06/24 08:34:10;;;;;;;5.82;4.47;;;30.10;84.50;;;;;;6310266;28;20199;-72
2021/06/24 08:37:12;;;;;;;4.07;3.72;;;30.00;83.90;;;;;;6297069;28;20214;-72
2021/06/24 08:40:15;;;;;;;6.53;4.30;;;30.10;85.70;;;;;;6294402;28;20695;-72
2021/06/24 08:43:18;;;;;;;6.97;4.75;;;30.50;84.00;;;;;;6294570;28;20281;-72
2021/06/24 08:46:21;;;;;;;4.55;4.03;;;30.60;81.50;;;;;;6295643;28;20210;-72
2021/06/24 08:49:25;;;;;;;4.38;4.03;;;30.70;81.90;;;;;;6297351;28;20563;-72
2021/06/24 08:52:30;;;;;;;4.93;4.20;;;31.10;80.70;;;;;;6312714;28;20214;-72
2021/06/24 08:55:42;;;;;;;6.38;4.35;;;31.40;79.40;;;;;;6303638;28;20677;-72
2021/06/24 08:58:46;;;;;;;4.55;4.15;;;31.90;76.60;;;;;;6316333;28;20206;-72
2021/06/24 09:01:57;;;;;;;4.95;4.03;;;32.10;75.50;;;;;;6315878;28;20212;-72
2021/06/24 09:05:00;;;;;;;5.60;4.53;;;32.20;74.40;;;;;;6311316;28;20675;-72
2021/06/24 09:08:03;;;;;;;5.63;3.70;;;32.30;73.60;;;;;;6309910;28;20308;-72
2021/06/24 09:11:16;;;;;;;4.45;4.03;;;32.60;73.20;;;;;;6310103;28;20190;-72
2021/06/24 09:14:18;;;;;;;5.75;4.15;;;32.70;71.10;;;;;;6294693;28;20230;-72
2021/06/24 09:17:40;;;;;;;4.50;3.97;;;33.00;70.00;;;;;;6319347;28;20182;-72
2021/06/24 09:20:42;;;;;;;6.75;4.18;;;33.30;69.70;;;;;;6311889;28;20198;-72
2021/06/24 09:23:45;;;;;;;9.10;4.82;;;33.50;67.20;;;;;;6320313;28;20205;-72
2021/06/24 09:26:47;;;;;;;7.28;4.20;;;33.40;66.80;;;;;;6317036;28;20201;-72
2021/06/24 09:30:09;;;;;;;4.40;4.00;;;33.40;65.30;;;;;;6309450;28;20187;-72
2021/06/24 09:33:16;;;;;;;5.80;4.43;;;33.40;65.50;;;;;;6316134;28;20217;-72
2021/06/24 09:36:39;;;;;;;5.53;4.32;;;33.70;64.90;;;;;;6301934;28;20218;-72
2021/06/24 09:39:45;;;;;;;5.72;4.50;;;34.10;63.30;;;;;;6306013;28;20549;-72
2021/06/24 09:42:47;;;;;;;5.25;4.57;;;34.40;61.80;;;;;;6313010;28;20244;-72
2021/06/24 09:46:19;;;;;;;6.45;4.22;;;34.60;62.80;;;;;;6295366;28;20225;-72
2021/06/24 09:49:31;;;;;;;7.20;4.10;;;34.90;61.50;;;;;;6263726;28;20727;-72
2021/06/24 09:52:35;;;;;;;5.68;4.57;;;35.10;60.30;;;;;;6266081;28;20584;-72
2021/06/24 09:55:41;;;;;;;5.57;4.72;;;35.30;59.90;;;;;;6267593;28;20258;-72
2021/06/24 09:58:49;;;;;;;6.05;4.43;;;35.40;58.40;;;;;;6267576;28;20211;-72
2021/06/24 10:01:53;;;;;;;7.28;4.55;;;35.40;58.60;;;;;;6251502;28;20230;-72
2021/06/24 10:04:55;;;;;;;5.15;4.65;;;35.70;58.00;;;;;;6249906;28;20243;-72
2021/06/24 10:07:58;;;;;;;5.25;4.75;;;35.90;58.20;;;;;;6267400;28;20199;-72
2021/06/24 10:11:02;;;;;;;6.75;4.90;;;36.20;56.50;;;;;;6267537;28;20217;-72
2021/06/24 10:14:06;;;;;;;6.65;4.68;;;35.50;56.00;;;;;;6261536;28;20281;-71
2021/06/24 10:17:09;;;;;;;9.38;5.63;;;34.50;56.30;;;;;;6266111;28;20309;-71
2021/06/24 10:20:13;;;;;;;6.30;4.78;;;34.20;57.50;;;;;;6242610;28;20590;-71
2021/06/24 10:23:18;;;;;;;6.80;4.55;;;34.10;57.20;;;;;;6251956;28;20195;-71
2021/06/24 10:26:21;;;;;;;6.47;5.00;;;34.10;58.10;;;;;;6287565;28;20233;-71
2021/06/24 10:29:24;;;;;;;10.35;5.40;;;34.40;57.70;;;;;;6302841;28;20279;-71
2021/06/24 10:32:29;;;;;;;7.13;5.47;;;34.70;56.90;;;;;;6300026;28;20572;-72
2021/06/24 10:35:35;;;;;;;7.07;5.05;;;34.70;56.80;;;;;;6318406;28;20194;-72
2021/06/24 10:38:42;;;;;;;7.22;4.63;;;34.50;57.00;;;;;;6312627;28;20199;-72
2021/06/24 10:41:59;;;;;;;6.47;4.90;;;35.00;57.30;;;;;;6303797;28;20725;-72
2021/06/24 10:45:04;;;;;;;6.90;5.15;;;35.40;56.90;;;;;;6307182;28;20211;-72
2021/06/24 10:48:28;;;;;;;7.35;5.25;;;35.70;56.00;;;;;;6300678;28;20183;-72
2021/06/24 10:51:34;;;;;;;7.40;5.63;;;35.70;55.00;;;;;;6291040;28;20198;-71
2021/06/24 10:54:42;;;;;;;6.20;5.70;;;36.00;55.00;;;;;;6310434;28;20203;-71
2021/06/24 10:57:44;;;;;;;9.35;6.70;;;36.10;55.00;;;;;;6299452;28;20195;-71
2021/06/24 11:00:50;;;;;;;8.75;7.28;;;35.90;55.80;;;;;;6323645;28;20649;-71
2021/06/24 11:03:53;;;;;;;9.27;7.10;;;36.00;55.90;;;;;;6317113;28;20509;-71
2021/06/24 11:06:57;;;;;;;9.05;7.35;;;36.40;55.10;;;;;;6293183;28;20211;-71
2021/06/24 11:10:20;;;;;;;11.90;7.40;;;36.10;54.80;;;;;;6294987;28;20179;-70
2021/06/24 11:13:50;;;;;;;9.65;7.15;;;35.90;55.40;;;;;;6293608;28;20221;-71
2021/06/24 11:16:52;;;;;;;11.25;7.32;;;36.10;54.80;;;;;;6301217;28;20569;-71
2021/06/24 11:20:15;;;;;;;7.88;7.18;;;36.10;54.80;;;;;;6317558;28;20189;-71
2021/06/24 11:23:34;;;;;;;9.45;6.40;;;35.90;54.60;;;;;;6311942;28;20317;-71
2021/06/24 11:26:39;;;;;;;11.60;8.20;;;35.70;54.40;;;;;;6297234;28;20819;-71
2021/06/24 11:29:44;;;;;;;12.35;7.68;;;35.70;54.40;;;;;;6290874;28;20202;-72
2021/06/24 11:32:51;;;;;;;11.57;8.20;;;35.80;54.40;;;;;;6305685;28;20548;-72
2021/06/24 11:36:10;;;;;;;18.10;8.77;;;35.80;54.40;;;;;;6315208;28;20213;-72
2021/06/24 11:39:24;;;;;;;10.07;9.00;;;35.80;55.20;;;;;;6316650;28;20194;-72
2021/06/24 11:42:32;;;;;;;12.68;9.30;;;36.10;55.70;;;;;;6316083;28;20198;-71
2021/06/24 11:45:35;;;;;;;11.95;9.05;;;36.00;53.90;;;;;;6313138;28;20307;-71
2021/06/24 11:48:37;;;;;;;14.63;10.15;;;36.10;53.00;;;;;;6317645;28;20457;-71
2021/06/24 12:05:28;;;;;;;16.48;11.63;;;35.70;53.80;;;;;;6316702;28;20247;-72
2021/06/24 12:08:31;;;;;;;15.75;11.30;;;35.90;53.00;;;;;;6313577;28;20564;-71
2021/06/24 12:11:36;;;;;;;11.70;10.55;;;36.00;53.30;;;;;;6309551;28;20189;-72
2021/06/24 12:14:42;;;;;;;14.10;10.90;;;36.50;53.30;;;;;;6305618;28;20280;-72
2021/06/24 12:17:45;;;;;;;17.15;11.52;;;36.90;52.30;;;;;;6314169;28;20563;-72
2021/06/24 12:20:47;;;;;;;15.82;11.40;;;37.10;51.80;;;;;;6316288;28;20688;-70
2021/06/24 12:23:54;;;;;;;16.52;11.57;;;37.10;51.60;;;;;;6316900;28;20321;-72
2021/06/24 12:27:16;;;;;;;14.75;11.50;;;36.40;51.80;;;;;;6300539;28;20270;-71
2021/06/24 12:30:33;;;;;;;19.33;12.00;;;36.60;52.40;;;;;;6317755;28;20190;-71
2021/06/24 12:33:35;;;;;;;15.15;11.27;;;36.00;51.40;;;;;;6317704;28;20795;-72
2021/06/24 12:36:38;;;;;;;19.92;10.75;;;35.80;52.30;;;;;;6304044;28;20229;-72
2021/06/24 12:39:40;;;;;;;17.35;10.85;;;36.10;52.20;;;;;;6319706;28;20633;-72
2021/06/24 12:42:48;;;;;;;15.40;11.00;;;36.70;51.70;;;;;;6321637;28;20194;-72
2021/06/24 12:46:00;;;;;;;15.73;11.30;;;37.20;50.90;;;;;;6318762;28;20258;-71
2021/06/24 12:49:16;;;;;;;12.43;10.60;;;37.50;51.30;;;;;;6320792;28;20178;-71
2021/06/24 12:52:31;;;;;;;13.38;10.00;;;38.00;50.30;;;;;;6321125;28;20186;-71
2021/06/24 12:55:47;;;;;;;18.25;11.35;;;37.50;49.50;;;;;;6316308;28;20187;-71
2021/06/24 12:58:51;;;;;;;18.05;10.18;;;37.10;50.20;;;;;;6318736;28;20246;-71
2021/06/24 13:01:53;;;;;;;12.05;9.57;;;36.80;51.00;;;;;;6310060;28;20624;-71
2021/06/24 13:04:56;;;;;;;15.88;10.63;;;36.70;52.10;;;;;;6309152;28;20216;-72
2021/06/24 13:08:07;;;;;;;16.15;10.82;;;36.80;52.10;;;;;;6323523;28;20673;-72
2021/06/24 13:11:16;;;;;;;15.20;10.27;;;36.70;52.60;;;;;;6309892;28;20567;-72
2021/06/24 13:14:21;;;;;;;19.52;11.95;;;36.40;52.80;;;;;;6316951;28;20376;-72
2021/06/24 13:17:36;;;;;;;18.95;11.85;;;35.60;52.60;;;;;;6322708;28;20194;-72
2021/06/24 13:20:39;;;;;;;16.98;10.50;;;34.90;54.20;;;;;;6315865;28;20190;-72
2021/06/24 13:23:41;;;;;;;12.82;10.15;;;34.40;55.90;;;;;;6319310;28;20182;-72
2021/06/24 13:26:43;;;;;;;16.45;10.18;;;34.00;57.30;;;;;;6320855;28;20213;-72
2021/06/24 13:29:55;;;;;;;12.73;9.90;;;33.80;58.30;;;;;;6312568;28;20186;-72
2021/06/24 13:32:57;;;;;;;15.07;9.65;;;33.70;58.60;;;;;;6307696;28;20214;-72
2021/06/24 13:35:59;;;;;;;24.60;10.95;;;33.40;59.00;;;;;;6305638;28;20714;-72
2021/06/24 13:39:06;;;;;;;19.17;11.25;;;33.00;60.70;;;;;;6291574;28;20213;-72
2021/06/24 13:42:09;;;;;;;20.02;12.27;;;32.50;65.40;;;;;;6301642;28;20210;-72
2021/06/24 13:45:11;;;;;;;16.80;12.88;;;31.90;67.80;;;;;;6308796;28;20209;-72
2021/06/24 13:48:16;;;;;;;27.30;14.05;;;31.20;71.50;;;;;;6313808;28;20261;-72
2021/06/24 13:51:18;;;;;;;23.13;13.65;;;30.70;75.80;;;;;;6318601;28;20477;-71
2021/06/24 13:54:27;;;;;;;20.60;13.50;;;29.80;81.20;;;;;;6302828;28;20178;-71
2021/06/24 13:57:29;;;;;;;28.15;15.73;;;29.00;87.80;;;;;;6299309;28;20574;-70
2021/06/24 14:00:37;;;;;;;29.85;16.88;;;28.40;92.70;;;;;;6320584;28;20193;-69
2021/06/24 14:03:39;;;;;;;22.60;15.32;;;27.70;98.50;;;;;;6302929;28;20695;-70
2021/06/24 14:06:42;;;;;;;29.77;15.98;;;27.20;99.90;;;;;;6317752;28;20257;-70
2021/06/24 14:09:46;;;;;;;31.13;17.55;;;27.00;99.90;;;;;;6319225;28;20214;-70
2021/06/24 14:12:52;;;;;;;30.45;18.35;;;26.40;99.90;;;;;;6318724;28;20222;-71
2021/06/24 14:15:54;;;;;;;22.13;14.45;;;25.90;99.90;;;;;;6317852;28;20554;-70
2021/06/24 14:18:57;;;;;;;27.33;14.68;;;25.70;99.90;;;;;;6317732;28;20198;-69
2021/06/24 14:22:03;;;;;;;22.13;14.52;;;25.60;99.90;;;;;;6318513;28;20522;-70
2021/06/24 14:25:06;;;;;;;30.02;16.20;;;25.60;99.90;;;;;;6299764;28;20563;-70
2021/06/24 14:28:08;;;;;;;25.23;14.73;;;25.60;99.90;;;;;;6316866;28;20212;-71
2021/06/24 14:31:11;;;;;;;29.65;15.25;;;25.50;99.90;;;;;;6316415;28;20196;-70
2021/06/24 14:34:13;;;;;;;21.60;13.50;;;25.60;99.90;;;;;;6318092;28;20641;-72
2021/06/24 14:37:16;;;;;;;22.85;13.25;;;25.90;99.90;;;;;;6306267;28;20225;-71
2021/06/24 14:40:18;;;;;;;23.20;12.77;;;26.40;99.90;;;;;;6314994;28;20194;-71
2021/06/24 14:43:20;;;;;;;18.27;12.50;;;26.70;99.90;;;;;;6309758;28;20334;-71
2021/06/24 14:46:23;;;;;;;19.23;12.70;;;26.90;99.90;;;;;;6307912;28;20677;-71
2021/06/24 14:49:25;;;;;;;15.13;11.02;;;27.30;99.90;;;;;;6319528;28;20193;-71
2021/06/24 14:52:27;;;;;;;18.92;11.18;;;27.90;99.90;;;;;;6308348;28;20196;-71
2021/06/24 14:55:34;;;;;;;21.63;10.90;;;29.10;99.90;;;;;;6309355;28;20197;-72
2021/06/24 14:58:37;;;;;;;19.08;11.25;;;30.90;99.90;;;;;;6318611;28;20267;-72
2021/06/24 15:01:39;;;;;;;19.92;11.50;;;32.30;99.90;;;;;;6318244;28;20285;-72
2021/06/24 15:04:42;;;;;;;17.15;10.93;;;33.40;98.30;;;;;;6316976;28;20197;-72
2021/06/24 15:07:45;;;;;;;16.80;10.82;;;34.50;95.90;;;;;;6315745;28;20754;-72
2021/06/24 15:10:47;;;;;;;13.02;9.95;;;34.80;94.10;;;;;;6317687;28;20563;-72
2021/06/24 15:13:49;;;;;;;14.73;10.32;;;34.50;93.50;;;;;;6315246;28;20363;-72
2021/06/24 15:16:52;;;;;;;17.95;11.43;;;33.70;94.30;;;;;;6316524;28;20205;-72
2021/06/24 15:19:54;;;;;;;16.98;10.55;;;32.60;96.30;;;;;;6318399;28;20653;-72
2021/06/24 15:22:57;;;;;;;17.00;11.95;;;31.60;98.60;;;;;;6319732;28;20680;-72
2021/06/24 15:25:59;;;;;;;20.20;13.30;;;30.70;99.90;;;;;;6318234;28;20245;-72
2021/06/24 15:29:02;;;;;;;20.08;13.15;;;29.50;99.90;;;;;;6319132;28;20268;-72
2021/06/24 15:32:04;;;;;;;18.55;13.00;;;28.60;99.90;;;;;;6318311;28;20185;-71
2021/06/24 15:35:08;;;;;;;21.05;13.10;;;27.90;99.90;;;;;;6317622;28;20538;-71
2021/06/24 15:38:11;;;;;;;21.00;13.93;;;27.50;99.90;;;;;;6318058;28;20294;-71
2021/06/24 15:41:13;;;;;;;15.23;12.73;;;27.10;99.90;;;;;;6311375;28;20543;-71
2021/06/24 15:44:15;;;;;;;16.63;13.57;;;26.90;99.90;;;;;;6309302;28;20182;-71
2021/06/24 15:47:18;;;;;;;17.73;12.80;;;26.90;99.90;;;;;;6292578;28;20213;-71
2021/06/24 15:50:28;;;;;;;21.50;13.77;;;27.00;99.90;;;;;;6293622;28;20547;-71
2021/06/24 15:53:31;;;;;;;20.55;14.10;;;26.90;99.90;;;;;;6296556;28;20780;-71
2021/06/24 15:56:34;;;;;;;20.00;13.85;;;26.70;99.90;;;;;;6298986;28;20559;-71
2021/06/24 15:59:37;;;;;;;14.95;12.88;;;26.50;99.90;;;;;;6320581;28;20566;-71
2021/06/24 16:02:39;;;;;;;21.10;13.90;;;26.20;99.90;;;;;;6323299;28;20208;-71